sensor_id;sensor_type;location;lat;lon;timestamp;P1;durP1;ratioP1;P2;durP2;ratioP2
24137;SDS011;17947;50.672;6.076;2023-03-20T00:00:41;2.65;;;2.40;;
24137;SDS011;17947;50.672;6.076;2023-03-20T00:03:09;3.17;;;2.47;;
24137;SDS011;17947;50.672;6.076;2023-03-20T00:05:35;2.58;;;2.25;;
24137;SDS011;17947;50.672;6.076;2023-03-20T00:08:02;2.70;;;2.17;;
24137;SDS011;17947;50.672;6.076;2023-03-20T00:10:34;3.35;;;2.30;;
24137;SDS011;17947;50.672;6.076;2023-03-20T00:13:03;2.83;;;2.40;;
24137;SDS011;17947;50.672;6.076;2023-03-20T00:15:37;2.20;;;1.98;;
24137;SDS011;17947;50.672;6.076;2023-03-20T00:18:03;2.28;;;2.08;;
24137;SDS011;17947;50.672;6.076;2023-03-20T00:20:36;2.85;;;2.40;;
24137;SDS011;17947;50.672;6.076;2023-03-20T00:23:02;2.95;;;2.00;;
24137;SDS011;17947;50.672;6.076;2023-03-20T00:25:28;2.60;;;2.30;;
24137;SDS011;17947;50.672;6.076;2023-03-20T00:27:56;2.72;;;2.45;;
24137;SDS011;17947;50.672;6.076;2023-03-20T00:30:24;2.47;;;2.03;;
24137;SDS011;17947;50.672;6.076;2023-03-20T00:32:52;2.35;;;2.10;;
24137;SDS011;17947;50.672;6.076;2023-03-20T00:35:22;2.28;;;2.08;;
24137;SDS011;17947;50.672;6.076;2023-03-20T00:37:49;2.47;;;2.17;;
24137;SDS011;17947;50.672;6.076;2023-03-20T00:40:15;3.20;;;2.10;;
24137;SDS011;17947;50.672;6.076;2023-03-20T00:42:43;2.53;;;2.20;;
24137;SDS011;17947;50.672;6.076;2023-03-20T00:45:14;1.92;;;1.83;;
24137;SDS011;17947;50.672;6.076;2023-03-20T00:47:41;2.35;;;1.98;;
24137;SDS011;17947;50.672;6.076;2023-03-20T00:50:15;2.40;;;1.90;;
24137;SDS011;17947;50.672;6.076;2023-03-20T00:52:41;2.03;;;1.83;;
24137;SDS011;17947;50.672;6.076;2023-03-20T00:55:09;3.17;;;2.20;;
24137;SDS011;17947;50.672;6.076;2023-03-20T00:57:57;2.97;;;2.00;;
24137;SDS011;17947;50.672;6.076;2023-03-20T01:02:48;2.17;;;1.98;;
24137;SDS011;17947;50.672;6.076;2023-03-20T01:05:14;2.10;;;1.90;;
24137;SDS011;17947;50.672;6.076;2023-03-20T01:07:40;2.45;;;2.25;;
24137;SDS011;17947;50.672;6.076;2023-03-20T01:10:07;2.55;;;2.28;;
24137;SDS011;17947;50.672;6.076;2023-03-20T01:12:33;2.28;;;2.00;;
24137;SDS011;17947;50.672;6.076;2023-03-20T01:14:59;2.72;;;1.92;;
24137;SDS011;17947;50.672;6.076;2023-03-20T01:17:26;3.47;;;2.10;;
24137;SDS011;17947;50.672;6.076;2023-03-20T01:19:53;2.47;;;1.98;;
24137;SDS011;17947;50.672;6.076;2023-03-20T01:22:19;2.10;;;2.00;;
24137;SDS011;17947;50.672;6.076;2023-03-20T01:24:45;2.20;;;2.00;;
24137;SDS011;17947;50.672;6.076;2023-03-20T01:27:15;2.20;;;1.95;;
24137;SDS011;17947;50.672;6.076;2023-03-20T01:29:41;2.05;;;1.83;;
24137;SDS011;17947;50.672;6.076;2023-03-20T01:32:11;1.90;;;1.80;;
24137;SDS011;17947;50.672;6.076;2023-03-20T01:34:37;2.13;;;1.70;;
24137;SDS011;17947;50.672;6.076;2023-03-20T01:37:05;2.03;;;1.80;;
24137;SDS011;17947;50.672;6.076;2023-03-20T01:39:35;2.30;;;1.80;;
24137;SDS011;17947;50.672;6.076;2023-03-20T01:42:02;2.08;;;1.92;;
24137;SDS011;17947;50.672;6.076;2023-03-20T01:44:29;2.30;;;1.88;;
24137;SDS011;17947;50.672;6.076;2023-03-20T01:46:56;1.90;;;1.80;;
24137;SDS011;17947;50.672;6.076;2023-03-20T01:51:49;3.42;;;1.98;;
24137;SDS011;17947;50.672;6.076;2023-03-20T01:54:16;1.98;;;1.83;;
24137;SDS011;17947;50.672;6.076;2023-03-20T01:56:47;1.70;;;1.60;;
24137;SDS011;17947;50.672;6.076;2023-03-20T01:59:25;1.80;;;1.70;;
24137;SDS011;17947;50.672;6.076;2023-03-20T02:01:53;2.20;;;1.77;;
24137;SDS011;17947;50.672;6.076;2023-03-20T02:04:21;1.88;;;1.70;;
24137;SDS011;17947;50.672;6.076;2023-03-20T02:06:49;1.80;;;1.70;;
24137;SDS011;17947;50.672;6.076;2023-03-20T02:09:15;2.05;;;1.83;;
24137;SDS011;17947;50.672;6.076;2023-03-20T02:11:41;2.33;;;2.00;;
24137;SDS011;17947;50.672;6.076;2023-03-20T02:14:08;1.95;;;1.75;;
24137;SDS011;17947;50.672;6.076;2023-03-20T02:16:34;3.38;;;1.88;;
24137;SDS011;17947;50.672;6.076;2023-03-20T02:19:00;2.25;;;1.80;;
24137;SDS011;17947;50.672;6.076;2023-03-20T02:21:50;2.72;;;2.08;;
24137;SDS011;17947;50.672;6.076;2023-03-20T02:35:41;1.70;;;1.60;;
24137;SDS011;17947;50.672;6.076;2023-03-20T02:40:58;2.03;;;1.70;;
24137;SDS011;17947;50.672;6.076;2023-03-20T02:43:28;1.92;;;1.52;;
24137;SDS011;17947;50.672;6.076;2023-03-20T02:51:13;1.60;;;1.50;;
24137;SDS011;17947;50.672;6.076;2023-03-20T02:58:49;2.72;;;1.60;;
24137;SDS011;17947;50.672;6.076;2023-03-20T03:01:35;1.80;;;1.60;;
24137;SDS011;17947;50.672;6.076;2023-03-20T03:04:11;1.92;;;1.58;;
24137;SDS011;17947;50.672;6.076;2023-03-20T03:06:41;2.08;;;1.60;;
24137;SDS011;17947;50.672;6.076;2023-03-20T03:11:35;2.05;;;1.80;;
24137;SDS011;17947;50.672;6.076;2023-03-20T03:14:02;1.65;;;1.55;;
24137;SDS011;17947;50.672;6.076;2023-03-20T03:16:31;1.88;;;1.60;;
24137;SDS011;17947;50.672;6.076;2023-03-20T03:19:06;1.67;;;1.58;;
24137;SDS011;17947;50.672;6.076;2023-03-20T03:21:32;1.98;;;1.33;;
24137;SDS011;17947;50.672;6.076;2023-03-20T03:24:00;1.60;;;1.50;;
24137;SDS011;17947;50.672;6.076;2023-03-20T03:26:27;1.88;;;1.55;;
24137;SDS011;17947;50.672;6.076;2023-03-20T03:29:02;1.45;;;1.35;;
24137;SDS011;17947;50.672;6.076;2023-03-20T03:31:30;2.03;;;1.83;;
24137;SDS011;17947;50.672;6.076;2023-03-20T03:33:57;2.42;;;1.60;;
24137;SDS011;17947;50.672;6.076;2023-03-20T03:39:16;1.38;;;1.27;;
24137;SDS011;17947;50.672;6.076;2023-03-20T03:44:34;1.73;;;1.60;;
24137;SDS011;17947;50.672;6.076;2023-03-20T03:47:04;1.88;;;1.70;;
24137;SDS011;17947;50.672;6.076;2023-03-20T03:49:34;1.88;;;1.70;;
24137;SDS011;17947;50.672;6.076;2023-03-20T03:52:01;1.85;;;1.50;;
24137;SDS011;17947;50.672;6.076;2023-03-20T03:54:39;1.58;;;1.48;;
24137;SDS011;17947;50.672;6.076;2023-03-20T03:57:07;2.00;;;1.80;;
24137;SDS011;17947;50.672;6.076;2023-03-20T03:59:35;1.80;;;1.70;;
24137;SDS011;17947;50.672;6.076;2023-03-20T04:02:03;1.85;;;1.58;;
24137;SDS011;17947;50.672;6.076;2023-03-20T04:04:30;1.73;;;1.52;;
24137;SDS011;17947;50.672;6.076;2023-03-20T04:06:57;1.75;;;1.60;;
24137;SDS011;17947;50.672;6.076;2023-03-20T04:09:23;1.65;;;1.55;;
24137;SDS011;17947;50.672;6.076;2023-03-20T04:11:50;1.88;;;1.70;;
24137;SDS011;17947;50.672;6.076;2023-03-20T04:14:16;1.75;;;1.50;;
24137;SDS011;17947;50.672;6.076;2023-03-20T04:16:43;1.90;;;1.70;;
24137;SDS011;17947;50.672;6.076;2023-03-20T04:19:08;1.95;;;1.65;;
24137;SDS011;17947;50.672;6.076;2023-03-20T04:21:35;1.85;;;1.60;;
24137;SDS011;17947;50.672;6.076;2023-03-20T04:24:01;1.77;;;1.60;;
24137;SDS011;17947;50.672;6.076;2023-03-20T04:26:27;1.73;;;1.40;;
24137;SDS011;17947;50.672;6.076;2023-03-20T04:28:53;2.20;;;1.50;;
24137;SDS011;17947;50.672;6.076;2023-03-20T04:31:19;1.50;;;1.40;;
24137;SDS011;17947;50.672;6.076;2023-03-20T04:33:45;1.55;;;1.45;;
24137;SDS011;17947;50.672;6.076;2023-03-20T04:36:11;1.92;;;1.67;;
24137;SDS011;17947;50.672;6.076;2023-03-20T04:38:37;2.03;;;1.83;;
24137;SDS011;17947;50.672;6.076;2023-03-20T04:41:03;1.27;;;1.20;;
24137;SDS011;17947;50.672;6.076;2023-03-20T04:43:29;1.40;;;1.30;;
24137;SDS011;17947;50.672;6.076;2023-03-20T04:45:55;1.65;;;1.45;;
24137;SDS011;17947;50.672;6.076;2023-03-20T04:48:21;1.50;;;1.40;;
24137;SDS011;17947;50.672;6.076;2023-03-20T04:50:49;1.48;;;1.30;;
24137;SDS011;17947;50.672;6.076;2023-03-20T04:53:15;1.40;;;1.30;;
24137;SDS011;17947;50.672;6.076;2023-03-20T04:55:42;1.35;;;1.25;;
24137;SDS011;17947;50.672;6.076;2023-03-20T04:58:08;1.45;;;1.35;;
24137;SDS011;17947;50.672;6.076;2023-03-20T05:00:34;1.80;;;1.40;;
24137;SDS011;17947;50.672;6.076;2023-03-20T05:03:00;1.50;;;1.40;;
24137;SDS011;17947;50.672;6.076;2023-03-20T05:05:26;1.50;;;1.38;;
24137;SDS011;17947;50.672;6.076;2023-03-20T05:07:53;1.63;;;1.50;;
24137;SDS011;17947;50.672;6.076;2023-03-20T05:10:20;1.50;;;1.27;;
24137;SDS011;17947;50.672;6.076;2023-03-20T05:12:46;1.45;;;1.35;;
24137;SDS011;17947;50.672;6.076;2023-03-20T05:15:12;1.33;;;1.23;;
24137;SDS011;17947;50.672;6.076;2023-03-20T05:17:38;1.33;;;1.13;;
24137;SDS011;17947;50.672;6.076;2023-03-20T05:20:05;2.15;;;1.58;;
24137;SDS011;17947;50.672;6.076;2023-03-20T05:22:31;1.50;;;1.27;;
24137;SDS011;17947;50.672;6.076;2023-03-20T05:24:58;1.50;;;1.40;;
24137;SDS011;17947;50.672;6.076;2023-03-20T05:27:25;1.27;;;1.13;;
24137;SDS011;17947;50.672;6.076;2023-03-20T05:29:51;1.60;;;1.40;;
24137;SDS011;17947;50.672;6.076;2023-03-20T05:32:17;1.85;;;1.30;;
24137;SDS011;17947;50.672;6.076;2023-03-20T05:34:43;1.92;;;1.38;;
24137;SDS011;17947;50.672;6.076;2023-03-20T05:37:10;1.50;;;1.30;;
24137;SDS011;17947;50.672;6.076;2023-03-20T05:39:37;1.30;;;1.20;;
24137;SDS011;17947;50.672;6.076;2023-03-20T05:42:03;1.52;;;1.33;;
24137;SDS011;17947;50.672;6.076;2023-03-20T05:44:29;1.40;;;1.30;;
24137;SDS011;17947;50.672;6.076;2023-03-20T05:46:55;1.38;;;1.25;;
24137;SDS011;17947;50.672;6.076;2023-03-20T05:49:21;1.27;;;1.17;;
24137;SDS011;17947;50.672;6.076;2023-03-20T05:51:47;1.27;;;1.17;;
24137;SDS011;17947;50.672;6.076;2023-03-20T05:54:13;1.50;;;1.15;;
24137;SDS011;17947;50.672;6.076;2023-03-20T05:56:39;1.30;;;1.20;;
24137;SDS011;17947;50.672;6.076;2023-03-20T05:59:05;1.40;;;1.30;;
24137;SDS011;17947;50.672;6.076;2023-03-20T06:01:31;1.40;;;1.30;;
24137;SDS011;17947;50.672;6.076;2023-03-20T06:03:57;1.30;;;1.10;;
24137;SDS011;17947;50.672;6.076;2023-03-20T06:06:23;1.60;;;1.20;;
24137;SDS011;17947;50.672;6.076;2023-03-20T06:08:50;1.20;;;1.10;;
24137;SDS011;17947;50.672;6.076;2023-03-20T06:11:16;1.33;;;1.23;;
24137;SDS011;17947;50.672;6.076;2023-03-20T06:13:42;1.55;;;1.35;;
24137;SDS011;17947;50.672;6.076;2023-03-20T06:16:08;1.38;;;1.20;;
24137;SDS011;17947;50.672;6.076;2023-03-20T06:18:34;1.27;;;1.17;;
24137;SDS011;17947;50.672;6.076;2023-03-20T06:21:00;1.35;;;1.25;;
24137;SDS011;17947;50.672;6.076;2023-03-20T06:23:26;1.00;;;1.00;;
24137;SDS011;17947;50.672;6.076;2023-03-20T06:25:52;1.20;;;1.10;;
24137;SDS011;17947;50.672;6.076;2023-03-20T06:28:18;1.80;;;1.30;;
24137;SDS011;17947;50.672;6.076;2023-03-20T06:30:44;1.15;;;1.00;;
24137;SDS011;17947;50.672;6.076;2023-03-20T06:33:11;1.10;;;1.00;;
24137;SDS011;17947;50.672;6.076;2023-03-20T06:35:37;1.00;;;1.00;;
24137;SDS011;17947;50.672;6.076;2023-03-20T06:38:03;1.10;;;1.00;;
24137;SDS011;17947;50.672;6.076;2023-03-20T06:40:29;1.13;;;1.02;;
24137;SDS011;17947;50.672;6.076;2023-03-20T06:42:55;1.33;;;1.10;;
24137;SDS011;17947;50.672;6.076;2023-03-20T06:45:21;1.20;;;1.00;;
24137;SDS011;17947;50.672;6.076;2023-03-20T06:47:47;1.20;;;1.10;;
24137;SDS011;17947;50.672;6.076;2023-03-20T06:50:14;1.23;;;1.13;;
24137;SDS011;17947;50.672;6.076;2023-03-20T06:52:40;1.17;;;1.02;;
24137;SDS011;17947;50.672;6.076;2023-03-20T06:55:06;1.20;;;1.10;;
24137;SDS011;17947;50.672;6.076;2023-03-20T06:57:32;1.02;;;0.93;;
24137;SDS011;17947;50.672;6.076;2023-03-20T06:59:59;1.17;;;1.08;;
24137;SDS011;17947;50.672;6.076;2023-03-20T07:02:25;1.98;;;1.30;;
24137;SDS011;17947;50.672;6.076;2023-03-20T07:04:51;0.75;;;0.75;;
24137;SDS011;17947;50.672;6.076;2023-03-20T07:07:17;0.93;;;0.88;;
24137;SDS011;17947;50.672;6.076;2023-03-20T07:09:44;1.20;;;1.10;;
24137;SDS011;17947;50.672;6.076;2023-03-20T07:12:13;1.63;;;1.10;;
24137;SDS011;17947;50.672;6.076;2023-03-20T07:14:40;1.20;;;1.10;;
24137;SDS011;17947;50.672;6.076;2023-03-20T07:17:07;1.17;;;1.08;;
24137;SDS011;17947;50.672;6.076;2023-03-20T07:19:34;1.10;;;1.00;;
24137;SDS011;17947;50.672;6.076;2023-03-20T07:22:00;1.45;;;1.10;;
24137;SDS011;17947;50.672;6.076;2023-03-20T07:24:28;1.15;;;1.00;;
24137;SDS011;17947;50.672;6.076;2023-03-20T07:26:54;1.20;;;1.10;;
24137;SDS011;17947;50.672;6.076;2023-03-20T07:29:20;1.00;;;1.00;;
24137;SDS011;17947;50.672;6.076;2023-03-20T07:31:46;1.40;;;1.10;;
24137;SDS011;17947;50.672;6.076;2023-03-20T07:34:12;1.27;;;1.10;;
24137;SDS011;17947;50.672;6.076;2023-03-20T07:36:38;0.90;;;0.90;;
24137;SDS011;17947;50.672;6.076;2023-03-20T07:39:06;0.90;;;0.90;;
24137;SDS011;17947;50.672;6.076;2023-03-20T07:41:32;1.30;;;1.20;;
24137;SDS011;17947;50.672;6.076;2023-03-20T07:43:58;1.15;;;1.00;;
24137;SDS011;17947;50.672;6.076;2023-03-20T07:46:24;2.15;;;1.10;;
24137;SDS011;17947;50.672;6.076;2023-03-20T07:48:50;1.77;;;1.00;;
24137;SDS011;17947;50.672;6.076;2023-03-20T07:51:17;1.58;;;1.20;;
24137;SDS011;17947;50.672;6.076;2023-03-20T07:53:43;1.42;;;1.08;;
24137;SDS011;17947;50.672;6.076;2023-03-20T07:56:09;1.35;;;1.25;;
24137;SDS011;17947;50.672;6.076;2023-03-20T07:58:35;1.55;;;1.15;;
24137;SDS011;17947;50.672;6.076;2023-03-20T08:01:02;1.20;;;1.10;;
24137;SDS011;17947;50.672;6.076;2023-03-20T08:03:28;1.20;;;1.10;;
24137;SDS011;17947;50.672;6.076;2023-03-20T08:05:55;1.85;;;0.90;;
24137;SDS011;17947;50.672;6.076;2023-03-20T08:08:21;1.30;;;1.20;;
24137;SDS011;17947;50.672;6.076;2023-03-20T08:10:47;1.95;;;1.10;;
24137;SDS011;17947;50.672;6.076;2023-03-20T08:13:14;1.98;;;1.40;;
24137;SDS011;17947;50.672;6.076;2023-03-20T08:15:40;1.70;;;1.50;;
24137;SDS011;17947;50.672;6.076;2023-03-20T08:18:06;1.42;;;1.33;;
24137;SDS011;17947;50.672;6.076;2023-03-20T08:20:32;2.53;;;1.58;;
24137;SDS011;17947;50.672;6.076;2023-03-20T08:22:58;1.55;;;1.40;;
24137;SDS011;17947;50.672;6.076;2023-03-20T08:25:24;1.23;;;1.08;;
24137;SDS011;17947;50.672;6.076;2023-03-20T08:27:52;2.47;;;1.40;;
24137;SDS011;17947;50.672;6.076;2023-03-20T08:30:18;1.67;;;1.50;;
24137;SDS011;17947;50.672;6.076;2023-03-20T08:32:45;2.08;;;1.40;;
24137;SDS011;17947;50.672;6.076;2023-03-20T08:35:11;1.63;;;1.40;;
24137;SDS011;17947;50.672;6.076;2023-03-20T08:37:37;1.70;;;1.42;;
24137;SDS011;17947;50.672;6.076;2023-03-20T08:40:04;1.40;;;1.25;;
24137;SDS011;17947;50.672;6.076;2023-03-20T08:42:30;2.53;;;1.30;;
24137;SDS011;17947;50.672;6.076;2023-03-20T08:44:57;2.75;;;1.30;;
24137;SDS011;17947;50.672;6.076;2023-03-20T08:47:23;1.73;;;1.35;;
24137;SDS011;17947;50.672;6.076;2023-03-20T08:49:50;1.25;;;1.10;;
24137;SDS011;17947;50.672;6.076;2023-03-20T08:52:16;1.25;;;1.10;;
24137;SDS011;17947;50.672;6.076;2023-03-20T08:54:43;1.75;;;1.20;;
24137;SDS011;17947;50.672;6.076;2023-03-20T08:57:09;1.48;;;1.30;;
24137;SDS011;17947;50.672;6.076;2023-03-20T08:59:35;1.20;;;1.10;;
24137;SDS011;17947;50.672;6.076;2023-03-20T09:02:01;1.73;;;1.30;;
24137;SDS011;17947;50.672;6.076;2023-03-20T09:04:27;1.17;;;1.08;;
24137;SDS011;17947;50.672;6.076;2023-03-20T09:06:53;2.20;;;1.20;;
24137;SDS011;17947;50.672;6.076;2023-03-20T09:09:20;1.60;;;1.42;;
24137;SDS011;17947;50.672;6.076;2023-03-20T09:11:53;2.33;;;1.30;;
24137;SDS011;17947;50.672;6.076;2023-03-20T09:14:19;1.73;;;1.00;;
24137;SDS011;17947;50.672;6.076;2023-03-20T09:16:45;1.00;;;1.00;;
24137;SDS011;17947;50.672;6.076;2023-03-20T09:19:11;4.13;;;1.25;;
24137;SDS011;17947;50.672;6.076;2023-03-20T09:21:37;1.67;;;1.00;;
24137;SDS011;17947;50.672;6.076;2023-03-20T09:24:03;1.30;;;0.82;;
24137;SDS011;17947;50.672;6.076;2023-03-20T09:26:29;1.90;;;1.17;;
24137;SDS011;17947;50.672;6.076;2023-03-20T09:28:57;1.20;;;1.10;;
24137;SDS011;17947;50.672;6.076;2023-03-20T09:31:23;1.23;;;1.13;;
24137;SDS011;17947;50.672;6.076;2023-03-20T09:33:49;1.42;;;1.30;;
24137;SDS011;17947;50.672;6.076;2023-03-20T09:36:15;1.13;;;1.00;;
24137;SDS011;17947;50.672;6.076;2023-03-20T09:38:41;1.27;;;1.02;;
24137;SDS011;17947;50.672;6.076;2023-03-20T09:41:21;1.80;;;1.17;;
24137;SDS011;17947;50.672;6.076;2023-03-20T09:51:39;1.98;;;0.88;;
24137;SDS011;17947;50.672;6.076;2023-03-20T09:54:09;0.85;;;0.80;;
24137;SDS011;17947;50.672;6.076;2023-03-20T09:56:39;1.33;;;1.02;;
24137;SDS011;17947;50.672;6.076;2023-03-20T09:59:05;1.65;;;1.13;;
24137;SDS011;17947;50.672;6.076;2023-03-20T10:01:38;1.27;;;0.90;;
24137;SDS011;17947;50.672;6.076;2023-03-20T10:04:08;2.03;;;1.10;;
24137;SDS011;17947;50.672;6.076;2023-03-20T10:06:35;1.55;;;1.08;;
24137;SDS011;17947;50.672;6.076;2023-03-20T10:09:05;0.90;;;0.90;;
24137;SDS011;17947;50.672;6.076;2023-03-20T10:14:04;1.08;;;0.90;;
24137;SDS011;17947;50.672;6.076;2023-03-20T10:16:41;1.30;;;0.98;;
24137;SDS011;17947;50.672;6.076;2023-03-20T10:24:05;1.48;;;0.98;;
24137;SDS011;17947;50.672;6.076;2023-03-20T10:26:35;1.13;;;0.85;;
24137;SDS011;17947;50.672;6.076;2023-03-20T10:29:04;1.80;;;1.00;;
24137;SDS011;17947;50.672;6.076;2023-03-20T10:31:42;1.27;;;0.95;;
24137;SDS011;17947;50.672;6.076;2023-03-20T10:41:35;1.23;;;0.93;;
24137;SDS011;17947;50.672;6.076;2023-03-20T10:44:02;1.13;;;0.80;;
24137;SDS011;17947;50.672;6.076;2023-03-20T10:46:49;1.40;;;0.93;;
24137;SDS011;17947;50.672;6.076;2023-03-20T10:49:23;0.85;;;0.75;;
24137;SDS011;17947;50.672;6.076;2023-03-20T10:51:51;2.40;;;1.00;;
24137;SDS011;17947;50.672;6.076;2023-03-20T10:54:33;2.58;;;1.13;;
24137;SDS011;17947;50.672;6.076;2023-03-20T10:57:03;1.17;;;0.85;;
24137;SDS011;17947;50.672;6.076;2023-03-20T10:59:38;1.23;;;1.02;;
24137;SDS011;17947;50.672;6.076;2023-03-20T11:02:12;1.05;;;0.68;;
24137;SDS011;17947;50.672;6.076;2023-03-20T11:04:38;1.45;;;0.90;;
24137;SDS011;17947;50.672;6.076;2023-03-20T11:09:37;2.38;;;0.80;;
24137;SDS011;17947;50.672;6.076;2023-03-20T11:12:03;1.40;;;1.10;;
24137;SDS011;17947;50.672;6.076;2023-03-20T11:14:33;0.95;;;0.80;;
24137;SDS011;17947;50.672;6.076;2023-03-20T11:17:02;1.33;;;0.90;;
24137;SDS011;17947;50.672;6.076;2023-03-20T11:19:32;1.23;;;0.90;;
24137;SDS011;17947;50.672;6.076;2023-03-20T11:21:59;1.92;;;0.75;;
24137;SDS011;17947;50.672;6.076;2023-03-20T11:26:52;1.15;;;0.82;;
24137;SDS011;17947;50.672;6.076;2023-03-20T11:29:24;0.80;;;0.77;;
24137;SDS011;17947;50.672;6.076;2023-03-20T11:31:51;0.75;;;0.75;;
24137;SDS011;17947;50.672;6.076;2023-03-20T11:36:52;1.60;;;0.70;;
24137;SDS011;17947;50.672;6.076;2023-03-20T11:39:22;1.55;;;0.80;;
24137;SDS011;17947;50.672;6.076;2023-03-20T11:41:52;0.85;;;0.77;;
24137;SDS011;17947;50.672;6.076;2023-03-20T11:47:04;1.33;;;0.80;;
24137;SDS011;17947;50.672;6.076;2023-03-20T11:49:31;1.50;;;0.88;;
24137;SDS011;17947;50.672;6.076;2023-03-20T11:51:59;0.65;;;0.65;;
24137;SDS011;17947;50.672;6.076;2023-03-20T11:54:26;1.67;;;0.90;;
24137;SDS011;17947;50.672;6.076;2023-03-20T11:59:19;0.93;;;0.80;;
24137;SDS011;17947;50.672;6.076;2023-03-20T12:01:47;0.82;;;0.60;;
24137;SDS011;17947;50.672;6.076;2023-03-20T12:04:16;1.30;;;0.70;;
24137;SDS011;17947;50.672;6.076;2023-03-20T12:10:12;1.35;;;0.70;;
24137;SDS011;17947;50.672;6.076;2023-03-20T12:14:44;0.98;;;0.77;;
24137;SDS011;17947;50.672;6.076;2023-03-20T12:19:55;1.30;;;0.80;;
24137;SDS011;17947;50.672;6.076;2023-03-20T12:22:23;0.90;;;0.73;;
24137;SDS011;17947;50.672;6.076;2023-03-20T12:25:00;1.23;;;0.80;;
24137;SDS011;17947;50.672;6.076;2023-03-20T12:27:30;0.60;;;0.60;;
24137;SDS011;17947;50.672;6.076;2023-03-20T12:30:05;0.70;;;0.70;;
24137;SDS011;17947;50.672;6.076;2023-03-20T12:32:39;1.58;;;0.77;;
24137;SDS011;17947;50.672;6.076;2023-03-20T12:35:15;1.17;;;0.75;;
24137;SDS011;17947;50.672;6.076;2023-03-20T12:37:41;1.35;;;0.80;;
24137;SDS011;17947;50.672;6.076;2023-03-20T12:40:11;2.38;;;0.70;;
24137;SDS011;17947;50.672;6.076;2023-03-20T12:45:40;1.52;;;0.90;;
24137;SDS011;17947;50.672;6.076;2023-03-20T12:50:35;1.33;;;0.73;;
24137;SDS011;17947;50.672;6.076;2023-03-20T13:11:50;2.33;;;0.80;;
24137;SDS011;17947;50.672;6.076;2023-03-20T13:14:24;2.15;;;0.70;;
24137;SDS011;17947;50.672;6.076;2023-03-20T13:16:53;1.13;;;0.75;;
24137;SDS011;17947;50.672;6.076;2023-03-20T13:19:33;0.93;;;0.85;;
24137;SDS011;17947;50.672;6.076;2023-03-20T13:22:05;2.08;;;0.88;;
24137;SDS011;17947;50.672;6.076;2023-03-20T13:27:12;1.55;;;0.85;;
24137;SDS011;17947;50.672;6.076;2023-03-20T13:29:44;1.33;;;0.90;;
24137;SDS011;17947;50.672;6.076;2023-03-20T13:32:19;1.20;;;0.70;;
24137;SDS011;17947;50.672;6.076;2023-03-20T13:37:36;1.30;;;0.95;;
24137;SDS011;17947;50.672;6.076;2023-03-20T13:42:37;0.75;;;0.75;;
24137;SDS011;17947;50.672;6.076;2023-03-20T13:45:29;1.17;;;0.95;;
24137;SDS011;17947;50.672;6.076;2023-03-20T13:47:53;1.48;;;0.80;;
24137;SDS011;17947;50.672;6.076;2023-03-20T13:50:25;1.05;;;0.80;;
24137;SDS011;17947;50.672;6.076;2023-03-20T14:05:43;2.33;;;0.98;;
24137;SDS011;17947;50.672;6.076;2023-03-20T14:11:03;2.60;;;1.10;;
24137;SDS011;17947;50.672;6.076;2023-03-20T14:13:30;3.60;;;1.00;;
24137;SDS011;17947;50.672;6.076;2023-03-20T14:15:57;1.52;;;0.98;;
24137;SDS011;17947;50.672;6.076;2023-03-20T14:18:26;1.23;;;0.80;;
24137;SDS011;17947;50.672;6.076;2023-03-20T14:21:02;2.47;;;1.00;;
24137;SDS011;17947;50.672;6.076;2023-03-20T14:23:35;1.52;;;0.90;;
24137;SDS011;17947;50.672;6.076;2023-03-20T14:26:09;1.27;;;0.70;;
24137;SDS011;17947;50.672;6.076;2023-03-20T14:28:43;1.83;;;0.75;;
24137;SDS011;17947;50.672;6.076;2023-03-20T14:31:10;2.22;;;0.88;;
24137;SDS011;17947;50.672;6.076;2023-03-20T14:33:43;1.15;;;0.95;;
24137;SDS011;17947;50.672;6.076;2023-03-20T14:36:11;1.33;;;0.88;;
24137;SDS011;17947;50.672;6.076;2023-03-20T14:41:40;3.22;;;0.98;;
24137;SDS011;17947;50.672;6.076;2023-03-20T14:46:53;2.05;;;0.80;;
24137;SDS011;17947;50.672;6.076;2023-03-20T14:49:23;2.50;;;0.93;;
24137;SDS011;17947;50.672;6.076;2023-03-20T14:51:52;2.53;;;1.10;;
24137;SDS011;17947;50.672;6.076;2023-03-20T14:56:46;1.25;;;0.93;;
24137;SDS011;17947;50.672;6.076;2023-03-20T14:59:13;1.65;;;1.00;;
24137;SDS011;17947;50.672;6.076;2023-03-20T15:04:14;1.02;;;0.70;;
24137;SDS011;17947;50.672;6.076;2023-03-20T15:06:46;2.78;;;1.00;;
24137;SDS011;17947;50.672;6.076;2023-03-20T15:09:13;1.77;;;0.80;;
24137;SDS011;17947;50.672;6.076;2023-03-20T15:11:41;3.03;;;0.90;;
24137;SDS011;17947;50.672;6.076;2023-03-20T15:14:07;1.90;;;1.05;;
24137;SDS011;17947;50.672;6.076;2023-03-20T15:16:35;1.42;;;0.90;;
24137;SDS011;17947;50.672;6.076;2023-03-20T15:19:03;1.65;;;0.90;;
24137;SDS011;17947;50.672;6.076;2023-03-20T15:23:58;1.70;;;1.10;;
24137;SDS011;17947;50.672;6.076;2023-03-20T15:26:24;1.60;;;0.98;;
24137;SDS011;17947;50.672;6.076;2023-03-20T15:28:55;2.45;;;1.08;;
24137;SDS011;17947;50.672;6.076;2023-03-20T15:31:25;3.22;;;1.00;;
24137;SDS011;17947;50.672;6.076;2023-03-20T15:33:54;3.00;;;1.10;;
24137;SDS011;17947;50.672;6.076;2023-03-20T15:36:21;1.65;;;0.90;;
24137;SDS011;17947;50.672;6.076;2023-03-20T15:38:48;1.63;;;1.13;;
24137;SDS011;17947;50.672;6.076;2023-03-20T15:49:27;2.03;;;0.80;;
24137;SDS011;17947;50.672;6.076;2023-03-20T15:51:55;1.73;;;1.05;;
24137;SDS011;17947;50.672;6.076;2023-03-20T15:54:22;2.33;;;1.00;;
24137;SDS011;17947;50.672;6.076;2023-03-20T15:56:50;1.52;;;0.80;;
24137;SDS011;17947;50.672;6.076;2023-03-20T15:59:18;1.65;;;0.90;;
24137;SDS011;17947;50.672;6.076;2023-03-20T16:01:45;2.35;;;1.00;;
24137;SDS011;17947;50.672;6.076;2023-03-20T16:04:13;1.42;;;0.85;;
24137;SDS011;17947;50.672;6.076;2023-03-20T16:06:44;1.17;;;1.00;;
24137;SDS011;17947;50.672;6.076;2023-03-20T16:09:12;1.27;;;0.85;;
24137;SDS011;17947;50.672;6.076;2023-03-20T16:11:40;0.80;;;0.80;;
24137;SDS011;17947;50.672;6.076;2023-03-20T16:14:41;1.17;;;0.68;;
24137;SDS011;17947;50.672;6.076;2023-03-20T16:17:00;2.00;;;0.93;;
24137;SDS011;17947;50.672;6.076;2023-03-20T16:19:27;1.38;;;0.90;;
24137;SDS011;17947;50.672;6.076;2023-03-20T16:22:11;1.80;;;0.90;;
24137;SDS011;17947;50.672;6.076;2023-03-20T16:24:40;1.13;;;0.90;;
24137;SDS011;17947;50.672;6.076;2023-03-20T16:27:09;0.90;;;0.90;;
24137;SDS011;17947;50.672;6.076;2023-03-20T16:29:35;1.95;;;1.05;;
24137;SDS011;17947;50.672;6.076;2023-03-20T16:32:03;1.50;;;0.82;;
24137;SDS011;17947;50.672;6.076;2023-03-20T16:34:32;1.85;;;1.02;;
24137;SDS011;17947;50.672;6.076;2023-03-20T16:36:59;2.60;;;0.80;;
24137;SDS011;17947;50.672;6.076;2023-03-20T16:39:27;2.55;;;0.98;;
24137;SDS011;17947;50.672;6.076;2023-03-20T16:42:08;1.75;;;1.10;;
24137;SDS011;17947;50.672;6.076;2023-03-20T16:44:35;2.00;;;0.80;;
24137;SDS011;17947;50.672;6.076;2023-03-20T16:52:11;1.23;;;0.90;;
24137;SDS011;17947;50.672;6.076;2023-03-20T16:54:38;2.10;;;1.05;;
24137;SDS011;17947;50.672;6.076;2023-03-20T16:57:14;3.03;;;1.00;;
24137;SDS011;17947;50.672;6.076;2023-03-20T16:59:41;2.30;;;1.27;;
24137;SDS011;17947;50.672;6.076;2023-03-20T17:02:21;2.10;;;0.90;;
24137;SDS011;17947;50.672;6.076;2023-03-20T17:04:51;1.73;;;1.10;;
24137;SDS011;17947;50.672;6.076;2023-03-20T17:07:19;1.58;;;1.10;;
24137;SDS011;17947;50.672;6.076;2023-03-20T17:12:34;1.15;;;0.90;;
24137;SDS011;17947;50.672;6.076;2023-03-20T17:15:02;1.45;;;1.00;;
24137;SDS011;17947;50.672;6.076;2023-03-20T17:17:28;1.25;;;1.10;;
24137;SDS011;17947;50.672;6.076;2023-03-20T17:19:54;2.10;;;1.00;;
24137;SDS011;17947;50.672;6.076;2023-03-20T17:22:21;1.75;;;1.00;;
24137;SDS011;17947;50.672;6.076;2023-03-20T17:24:48;1.25;;;1.00;;
24137;SDS011;17947;50.672;6.076;2023-03-20T17:27:14;1.45;;;1.00;;
24137;SDS011;17947;50.672;6.076;2023-03-20T17:29:42;1.55;;;1.10;;
24137;SDS011;17947;50.672;6.076;2023-03-20T17:32:17;2.13;;;1.20;;